Ozgur Aksoy — 9HA2587 — position and weather

sailwx.info

Track history (hours):
 
Tides and Currents Weather Stations Pressure Air Temp Water Temp Dewpoint Dewpoint Depression Visibility Wind Speed Wind Dir Waves Ship Positions

Ozgur Aksoy

Last reported at 2016-Jun-13 12:33 UTC. Time now 2016-Jul-27 05:45 UTC.
Position S 29°17' E 031°48'.
Warning: this ship's position is 43 days out of date.

Length 196 m; draft 6.6 m.

Type: Cargo ship. MMSI: 248950000.

Date/timePositionNaut miles runAvg speedWind from/ knotsBaromVisibWave heightAir tempDewpointWater temp
2016-Jun-13 12:33S 29°17' E 031°48'1111.2
2016-Jun-13 11:33S 29°22' E 031°37'1111.1
2016-Jun-13 10:33S 29°31' E 031°29'1111.3
2016-Jun-13 09:33S 29°39' E 031°20'1211.6
2016-Jun-13 08:33S 29°48' E 031°11'5 4.6
2016-Jun-13 07:33S 29°52' E 031°09'2 1.7
2016-Jun-13 06:33S 29°53' E 031°10'6 6.0
2016-Jun-13 05:33S 29°59' E 031°12'7 6.8
2016-Jun-13 04:33S 30°06' E 031°12'9 8.9
2016-Jun-13 03:33S 30°13' E 031°06'9 8.9
2016-Jun-13 02:33S 30°20' E 030°60'10 9.5
2016-Jun-13 01:33S 30°28' E 030°54'  
Track history (hours):
 
Tides and Currents Weather Stations Pressure Air Temp Water Temp Dewpoint Dewpoint Depression Visibility Wind Speed Wind Dir Waves Ship Positions

Ozgur Aksoy

Last reported at 2016-Jun-13 12:33 UTC. Time now 2016-Jul-27 05:45 UTC.
Position S 29°17' E 031°48'.
Warning: this ship's position is 43 days out of date.

Length 196 m; draft 6.6 m.

Type: Cargo ship. MMSI: 248950000.

Date/timePositionNaut miles runAvg speedWind from/ knotsBaromVisibWave heightAir tempDewpointWater temp
2016-Jun-13 12:33S 29°17' E 031°48'1111.2
2016-Jun-13 11:33S 29°22' E 031°37'1111.1
2016-Jun-13 10:33S 29°31' E 031°29'1111.3
2016-Jun-13 09:33S 29°39' E 031°20'1211.6
2016-Jun-13 08:33S 29°48' E 031°11'5 4.6
2016-Jun-13 07:33S 29°52' E 031°09'2 1.7
2016-Jun-13 06:33S 29°53' E 031°10'6 6.0
2016-Jun-13 05:33S 29°59' E 031°12'7 6.8
2016-Jun-13 04:33S 30°06' E 031°12'9 8.9
2016-Jun-13 03:33S 30°13' E 031°06'9 8.9
2016-Jun-13 02:33S 30°20' E 030°60'10 9.5
2016-Jun-13 01:33S 30°28' E 030°54'  

Dump ship's entire track history